Aérodrome :
LOGIN :

S'inscrire | Disclaimer

   EN    FR    IT 

 










Légende :    VFR   VFR Marginal   IFR   IFR Intensif   IFR Très Intensif
Visi : 
Plafond : 
>= 8 km
>= 3000ft
5 à 8 km
1000 à 3000 ft
1500m à 5 km
500 à 1000 ft
800 à 1500m
200 à 500 ft
< 800m
< 200 ft
Symboles :   Orages  Brouillard  Fortes neiges  Fortes précipitations  Vent > 20 kt
SIGMETs :   Divers  Orages  Givrage  Turbulence  Onde Orograph.  Cendres Volcan.






- Altitude de l'aérodrome : 400 ft
- Code IATA : BNX


LQBK - Banja Luka

DERNIER METAR :
  • 240600Z 29003KT 260V320 9999 FEW017 BKN022 OVC035 08/07 Q1006 NOSIG

METARs EXPIRÉS :
  • 240530Z 31004KT 280V350 9999 FEW017 BKN023 OVC035 07/07 Q1006 NOSIG
  • 240500Z 25002KT 9999 FEW017 BKN022 OVC037 07/07 Q1006 NOSIG
  • 240430Z 28003KT 260V320 9999 BKN017 OVC037 07/07 Q1006 NOSIG
  • 240400Z 26003KT 230V310 9999 SCT018 OVC033 07/07 Q1006 NOSIG
  • 240330Z 31005KT 270V330 9999 SCT013 BKN030 07/07 Q1006 NOSIG
  • 240300Z 30006KT 9999 SCT010 OVC023 07/07 Q1006 NOSIG
  • 240230Z 29006KT 9999 SCT010 OVC020 07/07 Q1006 NOSIG
  • 240130Z 32004KT 9999 SCT010 OVC017 08/08 Q1006 NOSIG
  • 240100Z 26002KT 9999 SCT012 BKN020 08/08 Q1006 NOSIG

TAF COR TAF LQBK
Valide du 24 à 06h jusqu'au 25 à 06h UTC


240500Z 2406/2506 27005KT 9999 SCT015 BKN030 TX13/2412Z TN05/2505Z
TEMPO 2411/2418 30015KT 4000 SHRA SCT010 FEW030TCU BKN035



MET'MAP, la Météo Aéronautique d'un coup d'oeil ! - Copyright ORBIFLY Décembre 2007 - Disclaimer

ORBIFLY MET'MAP TEAM :

Programmation & Développement : Alexandra Zaïnal
Sur une idée originale de : Baudouin d'Aumeries
Soutien technique & logistique : Manuel Goepfert
Assistance : Marc-Olivier Méhu




SOURCES & CREDITS :

   NOAA